Oak Island, Minnesota
Current Conditions -  °F | °C
As of 11:54 PM on Thursday 30 Oct 2014 (Local Time) from KFGN Reporting Station
Scattered Clouds Scattered Clouds  
Wind Chill: -7°   Ceiling: Unl
Heat Index: -1°   Visibility: 10mi
Dew Point: -7°   Wind: 15mph
Humidity: 64%   Direction: 30°NNE
Pressure: 30.52"   Gusts: 22mph
Location:  49.3°N, 94.86°W
Report Text: KFGN 310454Z AUTO 03013G19KT 10SM SCT031 M01/M07 A3052 RMK AO2
Loading
Personal Weather Stations






























Interactive Weather Map
Tropical Storm Tracking
New forecast layout! Learn more

10-Day Weather Forecast

Advertisements
Track Severe Weather on mobile